sensor_id;sensor_type;location;lat;lon;timestamp;noise_LAeq;noise_LA_min;noise_LA_max;noise_LA01;noise_LA95
45964;Laerm;31671;48.092;11.842;2022-09-13T00:00:42;28.83;27.54;30.20;;
45964;Laerm;31671;48.092;11.842;2022-09-13T00:03:08;28.83;27.62;30.06;;
45964;Laerm;31671;48.092;11.842;2022-09-13T00:05:35;28.92;27.32;33.51;;
45964;Laerm;31671;48.092;11.842;2022-09-13T00:08:01;28.81;27.44;31.18;;
45964;Laerm;31671;48.092;11.842;2022-09-13T00:10:26;29.88;27.60;38.07;;
45964;Laerm;31671;48.092;11.842;2022-09-13T00:12:52;28.74;27.27;32.91;;
45964;Laerm;31671;48.092;11.842;2022-09-13T00:15:18;28.76;27.37;30.10;;
45964;Laerm;31671;48.092;11.842;2022-09-13T00:17:44;28.77;27.35;30.23;;
45964;Laerm;31671;48.092;11.842;2022-09-13T00:20:10;28.74;27.54;30.04;;
45964;Laerm;31671;48.092;11.842;2022-09-13T00:22:36;29.26;27.38;33.45;;
45964;Laerm;31671;48.092;11.842;2022-09-13T00:25:03;28.78;27.57;30.06;;
45964;Laerm;31671;48.092;11.842;2022-09-13T00:27:29;29.76;27.52;36.72;;
45964;Laerm;31671;48.092;11.842;2022-09-13T00:29:56;28.69;27.28;30.78;;
45964;Laerm;31671;48.092;11.842;2022-09-13T00:32:22;29.06;27.28;32.22;;
45964;Laerm;31671;48.092;11.842;2022-09-13T00:34:47;29.26;27.43;56.42;;
45964;Laerm;31671;48.092;11.842;2022-09-13T00:37:13;28.71;27.21;37.19;;
45964;Laerm;31671;48.092;11.842;2022-09-13T00:39:39;48.79;27.42;73.54;;
45964;Laerm;31671;48.092;11.842;2022-09-13T00:42:04;32.70;28.08;43.99;;
45964;Laerm;31671;48.092;11.842;2022-09-13T00:44:48;30.29;28.23;33.44;;
45964;Laerm;31671;48.092;11.842;2022-09-13T00:47:16;30.11;27.99;34.31;;
45964;Laerm;31671;48.092;11.842;2022-09-13T00:49:44;30.47;28.05;36.51;;
45964;Laerm;31671;48.092;11.842;2022-09-13T00:52:13;29.86;27.84;36.03;;
45964;Laerm;31671;48.092;11.842;2022-09-13T00:54:49;30.77;27.76;44.64;;
45964;Laerm;31671;48.092;11.842;2022-09-13T00:57:17;29.29;27.52;42.18;;
45964;Laerm;31671;48.092;11.842;2022-09-13T00:59:50;28.77;27.20;30.15;;
45964;Laerm;31671;48.092;11.842;2022-09-13T01:02:17;28.75;27.36;29.96;;
45964;Laerm;31671;48.092;11.842;2022-09-13T01:04:44;28.68;27.40;30.11;;
45964;Laerm;31671;48.092;11.842;2022-09-13T01:07:10;28.76;27.50;29.92;;
45964;Laerm;31671;48.092;11.842;2022-09-13T01:09:38;28.74;27.40;30.04;;
45964;Laerm;31671;48.092;11.842;2022-09-13T01:12:08;28.75;27.48;29.94;;
45964;Laerm;31671;48.092;11.842;2022-09-13T01:14:37;28.69;27.27;30.13;;
45964;Laerm;31671;48.092;11.842;2022-09-13T01:17:03;28.72;27.40;30.04;;
45964;Laerm;31671;48.092;11.842;2022-09-13T01:19:28;28.75;27.35;29.88;;
45964;Laerm;31671;48.092;11.842;2022-09-13T01:27:18;30.08;27.35;37.36;;
45964;Laerm;31671;48.092;11.842;2022-09-13T01:30:07;28.73;27.34;29.98;;
45964;Laerm;31671;48.092;11.842;2022-09-13T01:32:40;29.25;27.39;33.72;;
45964;Laerm;31671;48.092;11.842;2022-09-13T01:37:54;28.82;27.51;30.40;;
45964;Laerm;31671;48.092;11.842;2022-09-13T01:45:20;28.69;27.21;30.03;;
45964;Laerm;31671;48.092;11.842;2022-09-13T01:47:59;42.44;27.17;72.61;;
45964;Laerm;31671;48.092;11.842;2022-09-13T01:50:38;29.84;27.85;38.33;;
45964;Laerm;31671;48.092;11.842;2022-09-13T01:53:08;31.42;28.10;38.95;;
45964;Laerm;31671;48.092;11.842;2022-09-13T01:55:47;30.00;27.63;53.32;;
45964;Laerm;31671;48.092;11.842;2022-09-13T02:01:12;40.94;27.86;77.03;;
45964;Laerm;31671;48.092;11.842;2022-09-13T02:03:44;29.29;27.63;40.10;;
45964;Laerm;31671;48.092;11.842;2022-09-13T02:06:15;28.73;27.32;30.33;;
45964;Laerm;31671;48.092;11.842;2022-09-13T02:08:44;29.56;27.30;34.35;;
45964;Laerm;31671;48.092;11.842;2022-09-13T02:11:12;28.82;27.39;31.51;;
45964;Laerm;31671;48.092;11.842;2022-09-13T02:13:45;28.72;27.36;37.43;;
45964;Laerm;31671;48.092;11.842;2022-09-13T02:16:16;29.02;27.59;32.20;;
45964;Laerm;31671;48.092;11.842;2022-09-13T02:18:45;29.06;27.53;31.07;;
45964;Laerm;31671;48.092;11.842;2022-09-13T02:21:14;28.87;27.46;30.69;;
45964;Laerm;31671;48.092;11.842;2022-09-13T02:26:14;28.80;27.46;30.94;;
45964;Laerm;31671;48.092;11.842;2022-09-13T02:28:43;28.70;27.06;30.03;;
45964;Laerm;31671;48.092;11.842;2022-09-13T02:31:10;28.76;27.48;30.10;;
45964;Laerm;31671;48.092;11.842;2022-09-13T02:33:38;29.28;27.30;33.07;;
45964;Laerm;31671;48.092;11.842;2022-09-13T02:36:07;28.85;27.51;30.71;;
45964;Laerm;31671;48.092;11.842;2022-09-13T02:38:36;28.86;27.57;30.79;;
45964;Laerm;31671;48.092;11.842;2022-09-13T02:43:35;28.83;27.50;30.62;;
45964;Laerm;31671;48.092;11.842;2022-09-13T02:51:15;28.85;27.42;30.80;;
45964;Laerm;31671;48.092;11.842;2022-09-13T02:56:14;28.69;27.13;30.43;;
45964;Laerm;31671;48.092;11.842;2022-09-13T02:58:45;28.76;27.26;30.06;;
45964;Laerm;31671;48.092;11.842;2022-09-13T03:01:14;28.89;27.43;32.66;;
45964;Laerm;31671;48.092;11.842;2022-09-13T03:03:40;28.92;27.23;33.25;;
45964;Laerm;31671;48.092;11.842;2022-09-13T03:06:06;28.73;27.49;33.98;;
45964;Laerm;31671;48.092;11.842;2022-09-13T03:08:32;29.19;27.41;31.95;;
45964;Laerm;31671;48.092;11.842;2022-09-13T03:13:35;28.81;27.39;30.15;;
45964;Laerm;31671;48.092;11.842;2022-09-13T03:16:08;28.82;27.26;31.16;;
45964;Laerm;31671;48.092;11.842;2022-09-13T03:19:02;28.81;27.27;29.97;;
45964;Laerm;31671;48.092;11.842;2022-09-13T03:24:13;28.93;27.30;31.49;;
45964;Laerm;31671;48.092;11.842;2022-09-13T03:29:44;28.90;27.34;31.72;;
45964;Laerm;31671;48.092;11.842;2022-09-13T03:34:50;29.07;27.42;32.42;;
45964;Laerm;31671;48.092;11.842;2022-09-13T03:39:53;28.93;27.43;30.63;;
45964;Laerm;31671;48.092;11.842;2022-09-13T03:42:21;29.31;27.47;33.04;;
45964;Laerm;31671;48.092;11.842;2022-09-13T03:44:49;29.00;27.36;34.10;;
45964;Laerm;31671;48.092;11.842;2022-09-13T03:47:16;28.88;27.60;31.25;;
45964;Laerm;31671;48.092;11.842;2022-09-13T03:49:42;29.00;27.57;31.62;;
45964;Laerm;31671;48.092;11.842;2022-09-13T03:52:08;28.80;27.30;29.98;;
45964;Laerm;31671;48.092;11.842;2022-09-13T03:54:36;28.97;27.45;31.71;;
45964;Laerm;31671;48.092;11.842;2022-09-13T03:57:12;28.77;27.31;30.09;;
45964;Laerm;31671;48.092;11.842;2022-09-13T03:59:40;28.87;27.54;31.54;;
45964;Laerm;31671;48.092;11.842;2022-09-13T04:02:07;28.83;27.51;30.77;;
45964;Laerm;31671;48.092;11.842;2022-09-13T04:04:32;28.88;27.19;30.76;;
45964;Laerm;31671;48.092;11.842;2022-09-13T04:06:58;28.86;27.48;30.23;;
45964;Laerm;31671;48.092;11.842;2022-09-13T04:09:23;28.97;27.62;30.88;;
45964;Laerm;31671;48.092;11.842;2022-09-13T04:11:49;28.90;27.59;30.18;;
45964;Laerm;31671;48.092;11.842;2022-09-13T04:14:15;28.94;27.37;32.14;;
45964;Laerm;31671;48.092;11.842;2022-09-13T04:16:40;28.91;27.63;30.30;;
45964;Laerm;31671;48.092;11.842;2022-09-13T04:19:06;29.06;27.52;35.70;;
45964;Laerm;31671;48.092;11.842;2022-09-13T04:21:32;28.94;27.67;30.51;;
45964;Laerm;31671;48.092;11.842;2022-09-13T04:23:57;29.20;27.54;32.35;;
45964;Laerm;31671;48.092;11.842;2022-09-13T04:26:23;29.02;27.61;30.55;;
45964;Laerm;31671;48.092;11.842;2022-09-13T04:28:51;29.10;27.69;31.24;;
45964;Laerm;31671;48.092;11.842;2022-09-13T04:31:16;29.26;27.42;32.41;;
45964;Laerm;31671;48.092;11.842;2022-09-13T04:33:42;29.04;27.37;31.04;;
45964;Laerm;31671;48.092;11.842;2022-09-13T04:36:08;29.18;27.58;32.05;;
45964;Laerm;31671;48.092;11.842;2022-09-13T04:38:33;28.89;27.60;31.94;;
45964;Laerm;31671;48.092;11.842;2022-09-13T04:40:59;29.33;27.38;32.40;;
45964;Laerm;31671;48.092;11.842;2022-09-13T04:43:25;29.38;27.53;35.60;;
45964;Laerm;31671;48.092;11.842;2022-09-13T04:45:50;29.04;27.56;30.52;;
45964;Laerm;31671;48.092;11.842;2022-09-13T04:48:16;29.95;27.75;35.33;;
45964;Laerm;31671;48.092;11.842;2022-09-13T04:50:42;29.23;27.52;34.73;;
45964;Laerm;31671;48.092;11.842;2022-09-13T04:53:07;29.22;27.57;33.20;;
45964;Laerm;31671;48.092;11.842;2022-09-13T04:55:33;29.52;27.57;34.68;;
45964;Laerm;31671;48.092;11.842;2022-09-13T04:57:59;29.05;27.57;31.19;;
45964;Laerm;31671;48.092;11.842;2022-09-13T05:00:24;29.52;27.61;34.12;;
45964;Laerm;31671;48.092;11.842;2022-09-13T05:02:54;29.38;27.59;31.74;;
45964;Laerm;31671;48.092;11.842;2022-09-13T05:05:19;29.05;27.33;30.63;;
45964;Laerm;31671;48.092;11.842;2022-09-13T05:07:48;29.59;27.75;33.18;;
45964;Laerm;31671;48.092;11.842;2022-09-13T05:10:13;29.30;27.71;33.10;;
45964;Laerm;31671;48.092;11.842;2022-09-13T05:12:39;30.01;27.73;37.41;;
45964;Laerm;31671;48.092;11.842;2022-09-13T05:15:05;29.27;27.83;32.11;;
45964;Laerm;31671;48.092;11.842;2022-09-13T05:17:31;29.27;27.80;33.00;;
45964;Laerm;31671;48.092;11.842;2022-09-13T05:19:56;29.85;28.08;37.21;;
45964;Laerm;31671;48.092;11.842;2022-09-13T05:22:22;30.60;27.74;37.29;;
45964;Laerm;31671;48.092;11.842;2022-09-13T05:24:48;29.33;27.83;32.45;;
45964;Laerm;31671;48.092;11.842;2022-09-13T05:27:13;31.85;28.28;40.25;;
45964;Laerm;31671;48.092;11.842;2022-09-13T05:29:39;30.33;28.81;35.27;;
45964;Laerm;31671;48.092;11.842;2022-09-13T05:32:05;30.53;28.96;36.26;;
45964;Laerm;31671;48.092;11.842;2022-09-13T05:34:30;30.26;28.67;31.88;;
45964;Laerm;31671;48.092;11.842;2022-09-13T05:36:56;30.90;29.18;34.83;;
45964;Laerm;31671;48.092;11.842;2022-09-13T05:39:22;30.40;28.93;32.20;;
45964;Laerm;31671;48.092;11.842;2022-09-13T05:41:48;30.83;29.10;38.41;;
45964;Laerm;31671;48.092;11.842;2022-09-13T05:44:13;30.78;28.93;38.23;;
45964;Laerm;31671;48.092;11.842;2022-09-13T05:46:39;31.34;29.18;37.73;;
45964;Laerm;31671;48.092;11.842;2022-09-13T05:49:05;30.46;29.03;36.65;;
45964;Laerm;31671;48.092;11.842;2022-09-13T05:51:31;30.64;29.15;33.54;;
45964;Laerm;31671;48.092;11.842;2022-09-13T05:53:57;30.84;29.08;35.22;;
45964;Laerm;31671;48.092;11.842;2022-09-13T05:56:24;30.31;28.69;32.01;;
45964;Laerm;31671;48.092;11.842;2022-09-13T05:58:50;30.59;28.97;32.86;;
45964;Laerm;31671;48.092;11.842;2022-09-13T06:01:20;30.52;28.98;36.77;;
45964;Laerm;31671;48.092;11.842;2022-09-13T06:03:47;30.44;28.95;36.50;;
45964;Laerm;31671;48.092;11.842;2022-09-13T06:06:13;30.54;29.07;35.36;;
45964;Laerm;31671;48.092;11.842;2022-09-13T06:08:39;30.50;29.04;33.67;;
45964;Laerm;31671;48.092;11.842;2022-09-13T06:11:06;30.43;29.07;34.18;;
45964;Laerm;31671;48.092;11.842;2022-09-13T06:13:32;30.68;29.08;36.27;;
45964;Laerm;31671;48.092;11.842;2022-09-13T06:15:58;30.33;28.99;34.95;;
45964;Laerm;31671;48.092;11.842;2022-09-13T06:18:24;30.69;28.85;34.89;;
45964;Laerm;31671;48.092;11.842;2022-09-13T06:20:50;30.22;28.80;33.79;;
45964;Laerm;31671;48.092;11.842;2022-09-13T06:23:16;30.23;28.82;33.26;;
45964;Laerm;31671;48.092;11.842;2022-09-13T06:25:42;30.26;28.88;33.71;;
45964;Laerm;31671;48.092;11.842;2022-09-13T06:28:08;30.17;28.76;34.50;;
45964;Laerm;31671;48.092;11.842;2022-09-13T06:30:34;30.55;28.78;33.96;;
45964;Laerm;31671;48.092;11.842;2022-09-13T06:33:00;30.09;28.48;33.80;;
45964;Laerm;31671;48.092;11.842;2022-09-13T06:35:26;30.16;28.96;34.48;;
45964;Laerm;31671;48.092;11.842;2022-09-13T06:37:55;30.31;28.92;33.83;;
45964;Laerm;31671;48.092;11.842;2022-09-13T06:40:21;30.02;28.64;33.81;;
45964;Laerm;31671;48.092;11.842;2022-09-13T06:42:46;30.09;28.25;33.62;;
45964;Laerm;31671;48.092;11.842;2022-09-13T06:45:12;30.11;28.61;33.42;;
45964;Laerm;31671;48.092;11.842;2022-09-13T06:47:38;30.15;28.79;36.96;;
45964;Laerm;31671;48.092;11.842;2022-09-13T06:50:03;30.33;28.80;33.53;;
45964;Laerm;31671;48.092;11.842;2022-09-13T06:52:29;30.13;28.57;33.59;;
45964;Laerm;31671;48.092;11.842;2022-09-13T06:54:55;30.26;28.73;34.24;;
45964;Laerm;31671;48.092;11.842;2022-09-13T06:57:21;30.48;28.58;34.97;;
45964;Laerm;31671;48.092;11.842;2022-09-13T06:59:46;30.26;28.50;34.08;;
45964;Laerm;31671;48.092;11.842;2022-09-13T07:02:12;30.10;28.82;34.92;;
45964;Laerm;31671;48.092;11.842;2022-09-13T07:04:38;30.08;28.33;34.66;;
45964;Laerm;31671;48.092;11.842;2022-09-13T07:07:04;29.93;28.66;34.48;;
45964;Laerm;31671;48.092;11.842;2022-09-13T07:09:30;29.94;28.49;34.13;;
45964;Laerm;31671;48.092;11.842;2022-09-13T07:11:55;30.00;28.54;31.42;;
45964;Laerm;31671;48.092;11.842;2022-09-13T07:14:22;30.01;28.66;31.89;;
45964;Laerm;31671;48.092;11.842;2022-09-13T07:16:48;30.10;28.72;32.38;;
45964;Laerm;31671;48.092;11.842;2022-09-13T07:19:15;29.97;28.75;34.23;;
45964;Laerm;31671;48.092;11.842;2022-09-13T07:21:41;30.19;28.66;34.71;;
45964;Laerm;31671;48.092;11.842;2022-09-13T07:24:07;30.25;28.71;34.81;;
45964;Laerm;31671;48.092;11.842;2022-09-13T07:26:33;30.00;28.56;34.10;;
45964;Laerm;31671;48.092;11.842;2022-09-13T07:28:59;29.84;28.57;35.01;;
45964;Laerm;31671;48.092;11.842;2022-09-13T07:31:27;29.82;28.55;35.70;;
45964;Laerm;31671;48.092;11.842;2022-09-13T07:33:55;29.77;28.59;32.24;;
45964;Laerm;31671;48.092;11.842;2022-09-13T07:36:21;29.84;28.44;35.58;;
45964;Laerm;31671;48.092;11.842;2022-09-13T07:38:46;30.09;28.46;34.94;;
45964;Laerm;31671;48.092;11.842;2022-09-13T07:41:14;29.73;28.44;34.68;;
45964;Laerm;31671;48.092;11.842;2022-09-13T07:43:40;29.67;28.20;35.42;;
45964;Laerm;31671;48.092;11.842;2022-09-13T07:48:32;29.64;28.24;31.64;;
45964;Laerm;31671;48.092;11.842;2022-09-13T07:50:59;29.73;28.45;35.23;;
45964;Laerm;31671;48.092;11.842;2022-09-13T07:53:25;29.75;28.44;34.79;;
45964;Laerm;31671;48.092;11.842;2022-09-13T07:55:51;29.77;28.38;31.43;;
45964;Laerm;31671;48.092;11.842;2022-09-13T07:58:16;30.15;28.41;40.86;;
45964;Laerm;31671;48.092;11.842;2022-09-13T08:00:42;30.26;28.43;49.62;;
45964;Laerm;31671;48.092;11.842;2022-09-13T08:03:09;30.02;28.54;44.96;;
45964;Laerm;31671;48.092;11.842;2022-09-13T08:05:38;29.70;28.31;36.24;;
45964;Laerm;31671;48.092;11.842;2022-09-13T08:08:04;29.93;28.40;51.11;;
45964;Laerm;31671;48.092;11.842;2022-09-13T08:10:29;29.59;28.27;34.53;;
45964;Laerm;31671;48.092;11.842;2022-09-13T08:12:55;29.54;28.03;32.85;;
45964;Laerm;31671;48.092;11.842;2022-09-13T08:15:21;29.49;28.29;36.66;;
45964;Laerm;31671;48.092;11.842;2022-09-13T08:17:46;29.58;28.15;34.69;;
45964;Laerm;31671;48.092;11.842;2022-09-13T08:20:12;29.61;27.75;36.14;;
45964;Laerm;31671;48.092;11.842;2022-09-13T08:22:38;30.52;28.41;36.70;;
45964;Laerm;31671;48.092;11.842;2022-09-13T08:25:04;29.67;28.14;36.41;;
45964;Laerm;31671;48.092;11.842;2022-09-13T08:27:29;30.00;28.24;34.41;;
45964;Laerm;31671;48.092;11.842;2022-09-13T08:29:55;29.67;28.35;34.13;;
45964;Laerm;31671;48.092;11.842;2022-09-13T08:32:21;29.71;28.12;34.15;;
45964;Laerm;31671;48.092;11.842;2022-09-13T08:34:46;29.43;28.12;33.30;;
45964;Laerm;31671;48.092;11.842;2022-09-13T08:37:12;29.46;28.26;32.22;;
45964;Laerm;31671;48.092;11.842;2022-09-13T08:39:38;29.51;28.25;33.11;;
45964;Laerm;31671;48.092;11.842;2022-09-13T08:42:10;29.56;28.07;31.94;;
45964;Laerm;31671;48.092;11.842;2022-09-13T08:44:43;29.54;28.13;31.06;;
45964;Laerm;31671;48.092;11.842;2022-09-13T08:47:20;29.50;28.11;31.05;;
45964;Laerm;31671;48.092;11.842;2022-09-13T08:49:55;29.57;27.73;33.13;;
45964;Laerm;31671;48.092;11.842;2022-09-13T08:52:34;29.52;28.22;34.13;;
45964;Laerm;31671;48.092;11.842;2022-09-13T08:55:07;29.58;28.29;31.56;;
45964;Laerm;31671;48.092;11.842;2022-09-13T08:57:48;29.66;28.16;33.02;;
45964;Laerm;31671;48.092;11.842;2022-09-13T09:00:20;30.12;27.97;34.88;;
45964;Laerm;31671;48.092;11.842;2022-09-13T09:05:23;29.73;27.95;34.12;;
45964;Laerm;31671;48.092;11.842;2022-09-13T09:08:03;30.22;28.40;35.71;;
45964;Laerm;31671;48.092;11.842;2022-09-13T09:10:40;30.20;28.41;35.09;;
45964;Laerm;31671;48.092;11.842;2022-09-13T09:13:07;29.68;28.06;35.97;;
45964;Laerm;31671;48.092;11.842;2022-09-13T09:15:41;29.82;28.24;36.40;;
45964;Laerm;31671;48.092;11.842;2022-09-13T09:20:36;29.68;28.15;38.11;;
45964;Laerm;31671;48.092;11.842;2022-09-13T09:23:12;30.03;28.46;35.87;;
45964;Laerm;31671;48.092;11.842;2022-09-13T09:25:38;29.83;28.37;34.92;;
45964;Laerm;31671;48.092;11.842;2022-09-13T09:28:14;29.88;28.29;33.56;;
45964;Laerm;31671;48.092;11.842;2022-09-13T09:30:48;29.64;28.11;31.45;;
45964;Laerm;31671;48.092;11.842;2022-09-13T09:35:56;29.29;28.09;36.83;;
45964;Laerm;31671;48.092;11.842;2022-09-13T09:38:31;29.26;27.97;31.38;;
45964;Laerm;31671;48.092;11.842;2022-09-13T09:41:02;29.62;27.98;36.53;;
45964;Laerm;31671;48.092;11.842;2022-09-13T09:43:31;29.28;27.88;34.38;;
45964;Laerm;31671;48.092;11.842;2022-09-13T09:45:58;29.30;27.85;35.39;;
45964;Laerm;31671;48.092;11.842;2022-09-13T09:48:26;29.64;28.01;33.59;;
45964;Laerm;31671;48.092;11.842;2022-09-13T09:50:55;29.52;28.14;34.18;;
45964;Laerm;31671;48.092;11.842;2022-09-13T09:53:40;29.58;28.15;34.20;;
45964;Laerm;31671;48.092;11.842;2022-09-13T09:58:46;29.95;28.07;37.70;;
45964;Laerm;31671;48.092;11.842;2022-09-13T10:04:03;29.59;28.16;31.08;;
45964;Laerm;31671;48.092;11.842;2022-09-13T10:06:30;29.74;28.11;39.00;;
45964;Laerm;31671;48.092;11.842;2022-09-13T10:09:14;29.95;28.03;36.83;;
45964;Laerm;31671;48.092;11.842;2022-09-13T10:11:56;29.35;27.95;32.81;;
45964;Laerm;31671;48.092;11.842;2022-09-13T10:19:50;29.56;28.00;31.13;;
45964;Laerm;31671;48.092;11.842;2022-09-13T10:22:16;29.44;27.89;41.84;;
45964;Laerm;31671;48.092;11.842;2022-09-13T10:24:41;29.73;27.99;36.32;;
45964;Laerm;31671;48.092;11.842;2022-09-13T10:29:52;30.21;27.91;46.84;;
45964;Laerm;31671;48.092;11.842;2022-09-13T10:32:19;29.88;28.08;34.55;;
45964;Laerm;31671;48.092;11.842;2022-09-13T10:34:45;29.77;27.93;36.44;;
45964;Laerm;31671;48.092;11.842;2022-09-13T10:37:31;29.43;27.86;31.88;;
45964;Laerm;31671;48.092;11.842;2022-09-13T10:40:04;29.23;27.84;35.93;;
45964;Laerm;31671;48.092;11.842;2022-09-13T10:42:32;29.48;27.87;41.25;;
45964;Laerm;31671;48.092;11.842;2022-09-13T10:45:04;29.66;27.87;33.92;;
45964;Laerm;31671;48.092;11.842;2022-09-13T10:49:56;29.61;27.80;37.09;;
45964;Laerm;31671;48.092;11.842;2022-09-13T10:52:27;29.32;27.80;34.52;;
45964;Laerm;31671;48.092;11.842;2022-09-13T10:54:53;29.37;27.78;37.71;;
45964;Laerm;31671;48.092;11.842;2022-09-13T10:57:33;29.17;27.86;31.04;;
45964;Laerm;31671;48.092;11.842;2022-09-13T10:59:59;34.19;27.93;55.34;;
45964;Laerm;31671;48.092;11.842;2022-09-13T11:02:35;30.35;27.84;50.24;;
45964;Laerm;31671;48.092;11.842;2022-09-13T11:05:13;30.78;27.88;46.88;;
45964;Laerm;31671;48.092;11.842;2022-09-13T11:10:34;29.71;27.84;44.48;;
45964;Laerm;31671;48.092;11.842;2022-09-13T11:13:04;29.60;28.04;36.87;;
45964;Laerm;31671;48.092;11.842;2022-09-13T11:20:31;30.01;28.13;37.67;;
45964;Laerm;31671;48.092;11.842;2022-09-13T11:31:29;29.11;27.87;34.62;;
45964;Laerm;31671;48.092;11.842;2022-09-13T11:36:33;29.57;27.58;37.18;;
45964;Laerm;31671;48.092;11.842;2022-09-13T11:41:33;29.29;27.88;34.50;;
45964;Laerm;31671;48.092;11.842;2022-09-13T11:54:32;29.12;27.84;31.72;;
45964;Laerm;31671;48.092;11.842;2022-09-13T11:57:02;29.27;27.88;34.19;;
45964;Laerm;31671;48.092;11.842;2022-09-13T12:01:59;29.72;27.86;35.54;;
45964;Laerm;31671;48.092;11.842;2022-09-13T12:04:32;29.34;28.12;33.09;;
45964;Laerm;31671;48.092;11.842;2022-09-13T12:07:00;29.44;27.70;40.64;;
45964;Laerm;31671;48.092;11.842;2022-09-13T12:09:28;29.46;27.92;32.39;;
45964;Laerm;31671;48.092;11.842;2022-09-13T12:12:02;29.43;28.11;33.46;;
45964;Laerm;31671;48.092;11.842;2022-09-13T12:14:29;29.67;28.04;34.04;;
45964;Laerm;31671;48.092;11.842;2022-09-13T12:17:01;29.46;27.97;32.35;;
45964;Laerm;31671;48.092;11.842;2022-09-13T12:19:29;29.58;28.21;31.27;;
45964;Laerm;31671;48.092;11.842;2022-09-13T12:21:57;29.66;28.10;36.89;;
45964;Laerm;31671;48.092;11.842;2022-09-13T12:24:33;30.10;28.22;37.21;;
45964;Laerm;31671;48.092;11.842;2022-09-13T12:27:22;30.19;28.53;33.56;;
45964;Laerm;31671;48.092;11.842;2022-09-13T12:29:50;29.40;27.94;31.60;;
45964;Laerm;31671;48.092;11.842;2022-09-13T12:32:17;29.29;27.98;36.67;;
45964;Laerm;31671;48.092;11.842;2022-09-13T12:34:51;29.30;27.91;34.41;;
45964;Laerm;31671;48.092;11.842;2022-09-13T12:42:35;29.76;27.90;36.14;;
45964;Laerm;31671;48.092;11.842;2022-09-13T12:47:54;29.49;28.13;35.41;;
45964;Laerm;31671;48.092;11.842;2022-09-13T13:01:02;29.19;27.65;33.03;;
45964;Laerm;31671;48.092;11.842;2022-09-13T13:03:31;29.12;27.44;32.04;;
45964;Laerm;31671;48.092;11.842;2022-09-13T13:06:10;29.27;27.92;31.83;;
45964;Laerm;31671;48.092;11.842;2022-09-13T13:08:40;29.14;27.86;30.75;;
45964;Laerm;31671;48.092;11.842;2022-09-13T13:11:14;29.11;27.87;30.71;;
45964;Laerm;31671;48.092;11.842;2022-09-13T13:13:43;29.14;27.80;38.66;;
45964;Laerm;31671;48.092;11.842;2022-09-13T13:16:31;29.33;27.69;38.17;;
45964;Laerm;31671;48.092;11.842;2022-09-13T13:18:59;29.09;27.41;33.92;;
45964;Laerm;31671;48.092;11.842;2022-09-13T13:31:43;29.04;27.69;30.48;;
45964;Laerm;31671;48.092;11.842;2022-09-13T13:39:12;29.37;27.67;33.37;;
45964;Laerm;31671;48.092;11.842;2022-09-13T13:41:59;29.07;27.69;30.85;;
45964;Laerm;31671;48.092;11.842;2022-09-13T13:46:51;29.08;27.88;31.97;;
45964;Laerm;31671;48.092;11.842;2022-09-13T13:52:38;29.72;27.78;37.88;;
45964;Laerm;31671;48.092;11.842;2022-09-13T13:59:45;29.14;27.54;35.28;;
45964;Laerm;31671;48.092;11.842;2022-09-13T14:02:12;29.31;27.72;35.43;;
45964;Laerm;31671;48.092;11.842;2022-09-13T14:07:06;29.22;27.52;33.78;;
45964;Laerm;31671;48.092;11.842;2022-09-13T14:09:39;29.54;27.82;42.08;;
45964;Laerm;31671;48.092;11.842;2022-09-13T14:12:13;29.23;27.69;38.30;;
45964;Laerm;31671;48.092;11.842;2022-09-13T14:19:58;29.60;27.93;39.78;;
45964;Laerm;31671;48.092;11.842;2022-09-13T14:22:25;29.60;27.67;42.41;;
45964;Laerm;31671;48.092;11.842;2022-09-13T14:24:52;30.03;27.94;36.97;;
45964;Laerm;31671;48.092;11.842;2022-09-13T14:27:19;29.27;27.66;35.24;;
45964;Laerm;31671;48.092;11.842;2022-09-13T14:29:47;29.19;27.86;34.64;;
45964;Laerm;31671;48.092;11.842;2022-09-13T14:32:15;29.32;28.11;34.20;;
45964;Laerm;31671;48.092;11.842;2022-09-13T14:34:49;29.65;27.92;36.34;;
45964;Laerm;31671;48.092;11.842;2022-09-13T14:37:17;30.01;28.11;35.24;;
45964;Laerm;31671;48.092;11.842;2022-09-13T14:39:52;29.42;28.03;32.65;;
45964;Laerm;31671;48.092;11.842;2022-09-13T14:42:18;29.38;28.05;31.42;;
45964;Laerm;31671;48.092;11.842;2022-09-13T14:44:44;29.90;28.22;34.65;;
45964;Laerm;31671;48.092;11.842;2022-09-13T14:50:02;29.51;28.23;31.92;;
45964;Laerm;31671;48.092;11.842;2022-09-13T14:52:30;29.83;28.05;34.55;;
45964;Laerm;31671;48.092;11.842;2022-09-13T14:54:57;29.38;28.05;31.31;;
45964;Laerm;31671;48.092;11.842;2022-09-13T14:57:26;29.48;28.11;30.99;;
45964;Laerm;31671;48.092;11.842;2022-09-13T14:59:54;29.47;27.72;32.76;;
45964;Laerm;31671;48.092;11.842;2022-09-13T15:02:25;29.40;28.13;30.66;;
45964;Laerm;31671;48.092;11.842;2022-09-13T15:04:52;29.49;28.34;33.60;;
45964;Laerm;31671;48.092;11.842;2022-09-13T15:07:20;29.60;28.17;39.04;;
45964;Laerm;31671;48.092;11.842;2022-09-13T15:09:46;29.65;28.21;33.08;;
45964;Laerm;31671;48.092;11.842;2022-09-13T15:12:22;29.79;28.30;43.44;;
45964;Laerm;31671;48.092;11.842;2022-09-13T15:14:48;29.68;28.37;32.55;;
45964;Laerm;31671;48.092;11.842;2022-09-13T15:17:14;29.59;28.29;31.07;;
45964;Laerm;31671;48.092;11.842;2022-09-13T15:19:40;29.64;28.29;34.28;;
45964;Laerm;31671;48.092;11.842;2022-09-13T15:22:11;29.52;28.24;30.92;;
45964;Laerm;31671;48.092;11.842;2022-09-13T15:24:38;29.68;28.22;34.80;;
45964;Laerm;31671;48.092;11.842;2022-09-13T15:27:14;29.71;28.28;36.24;;
45964;Laerm;31671;48.092;11.842;2022-09-13T15:29:46;29.92;28.26;35.27;;
45964;Laerm;31671;48.092;11.842;2022-09-13T15:32:19;29.87;28.43;36.90;;
45964;Laerm;31671;48.092;11.842;2022-09-13T15:34:46;29.89;28.41;36.96;;
45964;Laerm;31671;48.092;11.842;2022-09-13T15:37:13;29.85;28.30;35.32;;
45964;Laerm;31671;48.092;11.842;2022-09-13T15:42:07;29.83;28.36;34.19;;
45964;Laerm;31671;48.092;11.842;2022-09-13T15:44:33;29.84;28.43;33.24;;
45964;Laerm;31671;48.092;11.842;2022-09-13T15:46:59;29.87;28.48;32.02;;
45964;Laerm;31671;48.092;11.842;2022-09-13T15:49:26;29.84;28.33;31.46;;
45964;Laerm;31671;48.092;11.842;2022-09-13T15:51:53;29.94;28.37;32.56;;
45964;Laerm;31671;48.092;11.842;2022-09-13T15:54:19;29.91;28.56;31.23;;
45964;Laerm;31671;48.092;11.842;2022-09-13T15:56:45;30.03;28.37;31.53;;
45964;Laerm;31671;48.092;11.842;2022-09-13T15:59:12;30.11;28.82;33.13;;
45964;Laerm;31671;48.092;11.842;2022-09-13T16:01:37;30.22;28.59;32.35;;
45964;Laerm;31671;48.092;11.842;2022-09-13T16:04:03;30.04;28.37;31.60;;
45964;Laerm;31671;48.092;11.842;2022-09-13T16:06:29;30.38;28.73;35.59;;
45964;Laerm;31671;48.092;11.842;2022-09-13T16:08:55;30.01;28.66;33.39;;
45964;Laerm;31671;48.092;11.842;2022-09-13T16:11:23;29.90;28.34;33.18;;
45964;Laerm;31671;48.092;11.842;2022-09-13T16:13:48;29.96;28.34;34.58;;
45964;Laerm;31671;48.092;11.842;2022-09-13T16:16:14;30.08;28.44;34.61;;
45964;Laerm;31671;48.092;11.842;2022-09-13T16:18:40;29.88;28.58;31.81;;